Time;durP1;ratioP1;P1;durP2;ratioP2;P2;SDS_P1;SDS_P2;PMS_P1;PMS_P2;Temp;Humidity;BMP_temperature;BMP_pressure;BME280_temperature;BME280_humidity;BME280_pressure;Samples;Min_cycle;Max_cycle;Signal;HPM_P1;HPM_P2
2024/01/08 00:00:07;;;;;;;;;38.33;27.67;;;;;3.31;78.51;101816.09;4910242;28;44838;-84
2024/01/08 00:02:33;;;;;;;;;30.33;28.33;;;;;3.28;77.39;101823.78;4908704;28;44911;-83
2024/01/08 00:04:59;;;;;;;;;33.33;28.00;;;;;3.35;76.63;101827.66;4909377;29;45872;-84
2024/01/08 00:07:26;;;;;;;;;23.67;21.00;;;;;3.27;78.02;101815.78;4911267;29;45401;-83
2024/01/08 00:09:52;;;;;;;;;29.00;19.00;;;;;3.28;76.04;101826.41;4913908;28;45465;-84
2024/01/08 00:12:24;;;;;;;;;31.00;26.33;;;;;3.17;73.22;101830.06;4912886;28;44992;-84
2024/01/08 00:14:49;;;;;;;;;18.67;16.33;;;;;3.16;77.00;101833.53;4895034;28;47304;-83
2024/01/08 00:17:15;;;;;;;;;24.00;22.67;;;;;3.09;77.00;101840.16;4909069;28;44869;-84
2024/01/08 00:19:40;;;;;;;;;26.00;23.33;;;;;3.03;76.21;101837.13;4910342;28;45397;-84
2024/01/08 00:22:05;;;;;;;;;22.33;21.00;;;;;3.00;75.44;101843.09;4908136;28;45461;-84
2024/01/08 00:24:31;;;;;;;;;25.33;24.00;;;;;3.01;78.51;101854.53;4904791;29;46733;-84
2024/01/08 00:26:56;;;;;;;;;23.00;23.00;;;;;3.00;78.47;101848.34;4923591;28;44900;-84
2024/01/08 00:29:22;;;;;;;;;20.00;19.33;;;;;2.95;79.74;101841.91;4907324;28;45357;-84
2024/01/08 00:31:47;;;;;;;;;24.00;24.00;;;;;2.98;76.45;101849.06;4908740;29;45513;-84
2024/01/08 00:37:35;;;;;;;;;23.00;20.67;;;;;2.88;74.45;101842.31;4905384;29;45566;-84
2024/01/08 00:40:02;;;;;;;;;15.67;15.67;;;;;2.86;73.05;101849.19;4907348;29;45452;-84
2024/01/08 00:42:28;;;;;;;;;20.67;20.67;;;;;2.79;74.19;101850.53;4908285;28;45490;-83
2024/01/08 00:44:54;;;;;;;;;26.33;23.00;;;;;2.83;74.55;101841.16;4906856;28;45458;-84
2024/01/08 00:47:19;;;;;;;;;26.67;21.67;;;;;2.90;77.63;101845.97;4924443;28;45436;-84
2024/01/08 00:50:41;;;;;;;;;24.00;22.33;;;;;3.08;77.23;101845.31;4911140;28;45538;-83
2024/01/08 00:53:06;;;;;;;;;12.67;12.33;;;;;2.94;75.22;101852.31;4911793;28;45394;-85
2024/01/08 00:55:31;;;;;;;;;16.67;15.00;;;;;2.87;73.50;101866.81;4909178;28;45644;-84
2024/01/08 00:57:58;;;;;;;;;22.00;20.67;;;;;2.77;72.19;101844.28;4908958;28;45355;-84
2024/01/08 01:00:24;;;;;;;;;21.67;20.00;;;;;2.69;73.03;101844.63;4908575;28;45509;-84
2024/01/08 01:02:49;;;;;;;;;20.33;20.33;;;;;2.69;71.67;101842.00;4909539;28;45340;-84
2024/01/08 01:05:15;;;;;;;;;18.00;17.00;;;;;2.56;74.79;101822.81;4926312;28;46576;-83
2024/01/08 01:07:40;;;;;;;;;20.33;20.33;;;;;2.69;73.51;101840.28;4924026;28;45426;-84
2024/01/08 01:10:06;;;;;;;;;28.33;23.67;;;;;2.73;70.37;101841.38;4906536;28;45437;-84
2024/01/08 01:12:31;;;;;;;;;26.67;22.67;;;;;2.63;68.97;101844.22;4924354;28;45480;-84
2024/01/08 01:14:57;;;;;;;;;25.67;22.00;;;;;2.45;71.31;101823.84;4923639;28;45420;-84
2024/01/08 01:17:22;;;;;;;;;21.33;20.33;;;;;2.47;68.94;101843.22;4923813;28;45451;-84
2024/01/08 01:19:47;;;;;;;;;23.00;21.00;;;;;2.46;69.76;101845.75;4922272;28;44908;-84
2024/01/08 01:22:13;;;;;;;;;28.00;23.33;;;;;2.47;70.80;101839.72;4906610;28;45759;-84
2024/01/08 01:24:38;;;;;;;;;14.67;11.00;;;;;2.43;74.15;101830.72;4905985;28;47415;-84
2024/01/08 01:27:04;;;;;;;;;24.33;20.67;;;;;2.55;76.75;101839.38;4908175;28;45450;-84
2024/01/08 01:29:29;;;;;;;;;26.33;22.33;;;;;2.67;76.27;101846.25;4908950;28;45485;-84
2024/01/08 01:31:55;;;;;;;;;25.00;19.33;;;;;2.72;75.00;101856.22;4923483;28;45449;-84
2024/01/08 01:34:20;;;;;;;;;27.00;25.33;;;;;2.62;73.38;101839.78;4907696;28;47121;-84
2024/01/08 01:36:48;;;;;;;;;27.67;26.00;;;;;2.71;71.80;101858.75;4908321;28;45461;-84
2024/01/08 01:39:13;;;;;;;;;20.00;17.67;;;;;2.57;71.71;101853.53;4925160;28;45409;-84
2024/01/08 01:41:39;;;;;;;;;18.00;18.00;;;;;2.47;72.49;101822.22;4907212;28;45365;-84
2024/01/08 01:44:04;;;;;;;;;17.33;17.33;;;;;2.51;74.08;101821.63;4924686;28;46069;-83
2024/01/08 01:46:41;;;;;;;;;26.00;26.00;;;;;2.78;71.92;101847.81;4925270;28;44867;-83
2024/01/08 01:49:43;;;;;;;;;17.00;14.00;;;;;2.86;74.28;101858.81;4909883;28;45511;-84
2024/01/08 01:52:09;;;;;;;;;22.67;21.00;;;;;2.71;73.58;101859.66;4924469;28;45825;-83
2024/01/08 01:54:35;;;;;;;;;26.67;23.00;;;;;2.65;72.37;101859.28;4923299;28;47530;-83
2024/01/08 01:57:04;;;;;;;;;19.33;18.00;;;;;2.71;73.19;101861.38;4925413;28;45366;-83
2024/01/08 01:59:29;;;;;;;;;17.33;17.33;;;;;2.63;70.91;101854.75;4924412;28;45085;-84
2024/01/08 02:01:59;;;;;;;;;21.33;19.33;;;;;2.76;72.88;101857.31;4925244;28;45528;-80
2024/01/08 02:04:28;;;;;;;;;20.33;19.00;;;;;2.69;74.49;101860.38;4904945;28;46764;-81
2024/01/08 02:06:56;;;;;;;;;27.00;23.00;;;;;2.74;74.16;101864.19;4906117;28;45400;-81
2024/01/08 02:09:22;;;;;;;;;25.00;18.00;;;;;2.73;74.98;101865.03;4925399;28;45576;-80
2024/01/08 02:11:49;;;;;;;;;20.33;20.33;;;;;2.82;74.63;101865.59;4924795;28;45429;-80
2024/01/08 02:14:15;;;;;;;;;24.33;20.67;;;;;2.80;75.47;101862.84;4906535;28;47478;-80
2024/01/08 02:16:41;;;;;;;;;21.00;20.67;;;;;2.76;74.75;101858.22;4921285;28;45406;-81
2024/01/08 02:19:08;;;;;;;;;20.00;19.00;;;;;2.83;76.03;101862.16;4922475;28;45413;-80
2024/01/08 02:21:34;;;;;;;;;15.00;12.33;;;;;2.82;73.88;101875.19;4922545;28;44884;-81
2024/01/08 02:24:00;;;;;;;;;16.00;14.00;;;;;2.77;71.10;101874.91;4923116;28;46485;-80
2024/01/08 02:26:26;;;;;;;;;17.00;12.67;;;;;2.69;70.43;101853.41;4925089;28;45476;-80
2024/01/08 02:28:52;;;;;;;;;14.33;12.67;;;;;2.68;71.15;101876.94;4906096;28;45436;-81
2024/01/08 02:31:20;;;;;;;;;19.67;16.33;;;;;2.57;68.58;101858.78;4906329;28;45445;-80
2024/01/08 02:33:45;;;;;;;;;14.67;13.67;;;;;2.47;68.38;101866.88;4921874;28;45543;-79
2024/01/08 02:36:10;;;;;;;;;22.00;16.00;;;;;2.47;72.15;101864.25;4920639;28;45318;-81
2024/01/08 02:38:36;;;;;;;;;18.33;16.67;;;;;2.56;73.19;101866.53;4922238;28;45400;-81
2024/01/08 02:41:01;;;;;;;;;7.33;7.00;;;;;2.60;73.42;101865.94;4905603;28;45366;-81
2024/01/08 02:43:31;;;;;;;;;10.00;10.00;;;;;2.69;71.80;101865.63;4922817;28;45503;-81
2024/01/08 02:45:56;;;;;;;;;15.00;14.33;;;;;2.60;73.24;101865.94;4902169;29;45492;-81
2024/01/08 02:48:22;;;;;;;;;18.33;13.00;;;;;2.63;73.64;101865.25;4902497;29;45531;-81
2024/01/08 02:50:47;;;;;;;;;20.00;16.67;;;;;2.70;75.60;101870.06;4900533;29;45464;-81
2024/01/08 02:53:13;;;;;;;;;14.00;13.67;;;;;2.70;72.88;101872.69;4901508;28;46581;-82
2024/01/08 02:55:38;;;;;;;;;11.00;8.67;;;;;2.70;71.30;101867.44;4901953;28;46129;-81
2024/01/08 02:58:04;;;;;;;;;20.00;14.67;;;;;2.72;71.60;101861.47;4902039;29;45457;-81
2024/01/08 03:00:30;;;;;;;;;20.33;16.33;;;;;2.53;71.55;101867.25;4902236;29;45406;-81
2024/01/08 03:02:55;;;;;;;;;13.00;12.33;;;;;2.51;70.13;101866.25;4902471;29;47039;-80
2024/01/08 03:05:20;;;;;;;;;17.33;14.00;;;;;2.56;74.26;101870.06;4901146;29;45851;-81
2024/01/08 03:07:46;;;;;;;;;21.00;19.00;;;;;2.46;72.97;101861.50;4900855;29;45789;-82
2024/01/08 03:10:11;;;;;;;;;21.67;18.67;;;;;2.57;74.07;101866.66;4903710;29;45456;-82
2024/01/08 03:12:44;;;;;;;;;20.67;17.00;;;;;2.59;70.51;101870.28;4904840;28;45507;-81
2024/01/08 03:15:10;;;;;;;;;17.67;17.00;;;;;2.43;70.53;101867.47;4900793;29;45478;-81
2024/01/08 03:17:35;;;;;;;;;16.00;16.00;;;;;2.43;71.46;101882.34;4904573;28;45406;-81
2024/01/08 03:20:03;;;;;;;;;16.67;16.67;;;;;2.46;71.75;101882.50;4904802;28;45331;-81
2024/01/08 03:22:28;;;;;;;;;18.33;17.00;;;;;2.12;70.88;101859.28;4905569;29;47348;-81
2024/01/08 03:24:58;;;;;;;;;23.67;21.67;;;;;2.39;71.20;101882.13;4905924;29;45610;-81
2024/01/08 03:27:25;;;;;;;;;16.67;16.67;;;;;2.34;73.33;101891.44;4903925;29;45484;-81
2024/01/08 03:29:50;;;;;;;;;21.00;20.00;;;;;2.39;75.12;101887.38;4905894;28;45406;-81
2024/01/08 03:32:15;;;;;;;;;23.00;20.67;;;;;2.44;74.95;101895.53;4905263;28;45393;-80
2024/01/08 03:34:43;;;;;;;;;14.00;13.00;;;;;2.43;72.88;101891.09;4906035;29;45768;-80
2024/01/08 03:37:10;;;;;;;;;19.33;18.00;;;;;2.33;70.39;101896.56;4906455;28;45481;-80
2024/01/08 03:39:35;;;;;;;;;17.00;17.00;;;;;2.29;73.08;101871.81;4905683;29;45488;-81
2024/01/08 03:42:01;;;;;;;;;23.33;18.00;;;;;2.29;71.90;101890.19;4905104;29;47260;-81
2024/01/08 03:44:26;;;;;;;;;17.00;13.67;;;;;2.36;74.36;101894.13;4905447;28;45549;-81
2024/01/08 03:46:51;;;;;;;;;5.00;5.00;;;;;2.32;71.98;101907.84;4904014;29;45493;-81
2024/01/08 03:49:17;;;;;;;;;17.00;15.33;;;;;2.30;73.18;101877.97;4905228;28;45519;-81
2024/01/08 03:51:43;;;;;;;;;15.00;11.67;;;;;2.25;70.48;101888.19;4906588;29;45780;-81
2024/01/08 03:54:08;;;;;;;;;13.67;13.00;;;;;2.31;74.74;101885.97;4902864;29;45532;-81
2024/01/08 03:56:34;;;;;;;;;19.00;15.67;;;;;2.31;69.94;101887.69;4903783;29;45393;-81
2024/01/08 03:58:59;;;;;;;;;19.00;14.00;;;;;2.30;73.31;101893.72;4903181;29;45556;-81
2024/01/08 04:01:24;;;;;;;;;13.00;13.00;;;;;2.24;69.93;101881.09;4902123;29;47471;-81
2024/01/08 04:03:50;;;;;;;;;18.33;17.00;;;;;2.24;72.84;101890.69;4904980;28;45327;-81
2024/01/08 04:06:16;;;;;;;;;14.67;13.00;;;;;2.12;70.17;101885.53;4905043;29;46067;-81
2024/01/08 04:08:41;;;;;;;;;19.67;19.67;;;;;2.09;71.49;101875.75;4905660;29;45506;-81
2024/01/08 04:11:07;;;;;;;;;16.67;14.67;;;;;2.11;71.83;101886.34;4905114;29;59648;-81
2024/01/08 04:13:33;;;;;;;;;14.00;11.67;;;;;2.09;70.61;101911.59;4904983;29;45473;-82
2024/01/08 04:15:58;;;;;;;;;14.67;14.33;;;;;1.99;70.67;101903.09;4905464;28;45318;-80
2024/01/08 04:18:23;;;;;;;;;15.00;14.00;;;;;2.07;73.36;101887.88;4904667;29;45514;-81
2024/01/08 04:20:49;;;;;;;;;14.00;14.00;;;;;2.11;71.62;101904.72;4903733;29;45855;-81
2024/01/08 04:23:14;;;;;;;;;19.67;14.00;;;;;2.06;69.58;101906.13;4900964;28;45446;-81
2024/01/08 04:25:39;;;;;;;;;19.00;17.00;;;;;2.02;71.88;101904.09;4903788;28;45576;-81
2024/01/08 04:28:05;;;;;;;;;19.33;18.67;;;;;2.03;72.65;101914.72;4903150;28;45424;-81
2024/01/08 04:30:30;;;;;;;;;14.00;14.00;;;;;2.04;73.40;101892.00;4903133;29;47339;-81
2024/01/08 04:32:56;;;;;;;;;19.67;19.67;;;;;2.06;69.78;101911.38;4903430;28;45473;-80
2024/01/08 04:35:21;;;;;;;;;11.00;11.00;;;;;1.93;68.27;101921.03;4900619;29;45451;-80
2024/01/08 04:37:47;;;;;;;;;15.33;13.33;;;;;1.93;70.23;101913.16;4901370;29;45478;-81
2024/01/08 04:40:14;;;;;;;;;14.67;14.00;;;;;1.95;70.53;101915.91;4901261;29;47162;-80
2024/01/08 04:42:40;;;;;;;;;12.33;10.00;;;;;1.92;70.63;101907.81;4904599;28;45450;-81
2024/01/08 04:45:05;;;;;;;;;17.00;17.00;;;;;1.87;69.71;101915.38;4905705;28;45462;-80
2024/01/08 04:47:31;;;;;;;;;19.00;16.33;;;;;1.87;70.42;101909.22;4921966;28;45560;-81
2024/01/08 04:49:56;;;;;;;;;17.67;16.67;;;;;1.94;71.70;101924.56;4923901;28;47415;-82
2024/01/08 04:52:22;;;;;;;;;23.00;19.00;;;;;1.88;69.40;101918.91;4924389;28;45386;-80
2024/01/08 04:54:49;;;;;;;;;16.33;16.33;;;;;1.98;71.84;101922.28;4907658;28;45505;-80
2024/01/08 04:57:14;;;;;;;;;20.00;18.67;;;;;1.90;69.29;101910.34;4890897;28;45448;-81
2024/01/08 04:59:40;;;;;;;;;17.00;16.00;;;;;1.99;72.91;101921.44;4907380;28;48266;-82
2024/01/08 05:02:08;;;;;;;;;14.67;14.67;;;;;2.07;70.47;101908.84;4906196;28;45767;-80
2024/01/08 05:04:36;;;;;;;;;20.67;20.00;;;;;1.96;69.31;101920.31;4923463;28;45947;-85
2024/01/08 05:07:02;;;;;;;;;16.00;16.00;;;;;1.88;69.72;101917.22;4894547;28;45424;-83
2024/01/08 05:09:28;;;;;;;;;20.67;18.67;;;;;1.89;72.44;101923.34;4905167;28;47355;-80
2024/01/08 05:11:54;;;;;;;;;19.33;14.00;;;;;1.95;72.83;101921.16;4911643;28;45493;-80
2024/01/08 05:14:19;;;;;;;;;14.00;13.00;;;;;1.93;73.54;101909.66;4912008;28;45413;-80
2024/01/08 05:16:46;;;;;;;;;14.67;10.33;;;;;2.02;73.57;101918.16;4923933;28;45534;-82
2024/01/08 05:19:12;;;;;;;;;15.00;13.00;;;;;1.96;71.17;101922.94;4906235;28;47034;-81
2024/01/08 05:21:37;;;;;;;;;19.33;17.00;;;;;1.93;70.12;101928.00;4922051;28;45603;-80
2024/01/08 05:24:03;;;;;;;;;14.00;14.00;;;;;1.82;68.40;101892.25;4906105;28;45659;-82
2024/01/08 05:26:28;;;;;;;;;23.00;21.33;;;;;1.90;69.69;101922.53;4906885;28;45428;-81
2024/01/08 05:29:03;;;;;;;;;17.33;17.33;;;;;1.94;68.15;101935.06;4907897;28;48317;-82
2024/01/08 05:31:29;;;;;;;;;19.00;17.00;;;;;1.75;68.93;101936.44;4907994;28;45434;-81
2024/01/08 05:33:54;;;;;;;;;17.00;14.67;;;;;1.67;69.37;101927.13;4922359;28;45486;-81
2024/01/08 05:36:19;;;;;;;;;23.00;19.67;;;;;1.73;67.27;101924.91;4923107;28;45589;-81
2024/01/08 05:38:45;;;;;;;;;16.33;15.33;;;;;1.70;66.83;101921.22;4895727;28;47214;-81
2024/01/08 05:41:10;;;;;;;;;18.33;15.00;;;;;1.63;66.94;101916.31;4919051;28;45453;-81
2024/01/08 05:43:40;;;;;;;;;16.00;14.67;;;;;1.72;68.37;101931.00;4923821;28;45418;-82
2024/01/08 05:46:06;;;;;;;;;21.00;16.67;;;;;1.63;69.08;101924.19;4903386;29;45644;-81
2024/01/08 05:48:39;;;;;;;;;20.33;20.00;;;;;1.68;69.37;101928.97;4907353;29;47215;-81
2024/01/08 05:51:08;;;;;;;;;17.67;13.00;;;;;1.66;70.23;101927.03;4909113;28;45434;-80
2024/01/08 05:53:34;;;;;;;;;18.67;15.00;;;;;1.70;67.87;101953.56;4889128;29;45533;-82
2024/01/08 05:56:00;;;;;;;;;19.67;19.00;;;;;1.70;70.55;101940.47;4907335;28;45389;-80
2024/01/08 05:58:26;;;;;;;;;19.33;15.67;;;;;1.65;68.50;101933.06;4896479;29;45418;-81
2024/01/08 06:00:53;;;;;;;;;16.00;14.67;;;;;1.67;68.33;101928.84;4902644;29;45355;-80
2024/01/08 06:03:20;;;;;;;;;11.67;11.67;;;;;1.71;69.14;101929.16;4903248;29;45464;-81
2024/01/08 06:05:46;;;;;;;;;19.00;17.33;;;;;1.69;68.00;101929.84;4903460;28;45442;-81
2024/01/08 06:08:19;;;;;;;;;15.33;12.33;;;;;1.84;67.94;101930.00;4903681;28;45458;-80
2024/01/08 06:10:46;;;;;;;;;17.67;15.33;;;;;1.70;68.76;101926.44;4904165;28;45626;-81
2024/01/08 06:13:12;;;;;;;;;12.33;11.67;;;;;1.72;67.36;101936.22;4903229;28;45451;-81
2024/01/08 06:15:38;;;;;;;;;22.33;18.67;;;;;1.70;69.18;101916.88;4885240;29;45523;-81
2024/01/08 06:18:06;;;;;;;;;19.00;17.00;;;;;1.86;71.42;101934.56;4884107;29;47877;-82
2024/01/08 06:20:33;;;;;;;;;15.00;13.33;;;;;1.89;69.52;101933.84;4900415;29;45358;-81
2024/01/08 06:22:59;;;;;;;;;11.33;10.33;;;;;1.91;69.58;101934.88;4902434;29;45474;-81
2024/01/08 06:25:27;;;;;;;;;16.67;15.33;;;;;1.95;70.38;101939.50;4885426;29;45582;-80
2024/01/08 06:27:53;;;;;;;;;23.67;22.00;;;;;1.99;70.45;101936.28;4886452;28;45505;-81
2024/01/08 06:30:18;;;;;;;;;16.00;13.33;;;;;1.97;69.37;101932.66;4890933;28;44932;-81
2024/01/08 06:32:46;;;;;;;;;17.00;16.33;;;;;2.04;68.30;101945.41;4885844;28;45449;-81
2024/01/08 06:35:11;;;;;;;;;22.00;17.00;;;;;1.97;69.69;101949.31;4887110;29;45478;-81
2024/01/08 06:37:40;;;;;;;;;17.67;15.67;;;;;2.05;73.32;101941.06;4892990;28;46295;-81
2024/01/08 06:40:06;;;;;;;;;19.33;19.33;;;;;2.01;70.30;101947.81;4884650;29;45873;-81
2024/01/08 06:42:32;;;;;;;;;24.33;20.67;;;;;1.97;72.24;101949.31;4883932;29;45443;-82
2024/01/08 06:44:57;;;;;;;;;16.33;16.33;;;;;1.99;70.02;101945.06;4891624;29;45516;-81
2024/01/08 06:47:23;;;;;;;;;20.67;19.33;;;;;1.93;70.27;101951.63;4900906;29;46467;-79
2024/01/08 06:49:48;;;;;;;;;16.33;16.00;;;;;2.00;71.17;101948.63;4925079;28;45624;-81
2024/01/08 06:52:20;;;;;;;;;20.00;17.00;;;;;2.03;69.25;101959.31;4895639;28;45503;-81
2024/01/08 06:54:46;;;;;;;;;20.00;18.67;;;;;1.90;70.55;101961.88;4913282;29;45541;-80
2024/01/08 06:58:08;;;;;;;;;23.33;21.67;;;;;2.01;71.98;101942.56;4923751;28;45584;-82
2024/01/08 07:00:33;;;;;;;;;16.00;12.00;;;;;1.87;69.07;101945.94;4915465;28;45430;-81
2024/01/08 07:03:00;;;;;;;;;25.00;20.00;;;;;1.83;69.22;101950.06;4921924;28;45492;-81
2024/01/08 07:05:25;;;;;;;;;18.00;16.00;;;;;1.76;68.20;101935.63;4892067;29;45569;-80
2024/01/08 07:07:53;;;;;;;;;21.00;16.67;;;;;1.78;68.83;101941.00;4907564;29;47437;-81
2024/01/08 07:10:19;;;;;;;;;20.00;18.33;;;;;1.78;68.54;101951.50;4890021;29;45446;-81
2024/01/08 07:12:46;;;;;;;;;20.67;16.33;;;;;1.76;69.71;101953.09;4918464;28;45530;-81
2024/01/08 07:15:40;;;;;;;;;21.33;17.00;;;;;1.88;70.37;101953.00;4897570;28;45312;-81
2024/01/08 07:18:08;;;;;;;;;18.33;16.33;;;;;1.79;68.92;101940.19;4902676;29;47817;-81
2024/01/08 07:20:36;;;;;;;;;19.00;14.00;;;;;1.80;67.00;101942.91;4903682;29;45403;-80
2024/01/08 07:23:01;;;;;;;;;18.33;18.33;;;;;1.73;67.11;101938.03;4890430;29;45479;-80
2024/01/08 07:25:26;;;;;;;;;24.33;20.67;;;;;1.77;69.86;101947.03;4907125;29;45629;-81
2024/01/08 07:27:54;;;;;;;;;19.00;18.33;;;;;1.85;67.62;101956.34;4888913;29;47165;-81
2024/01/08 07:30:20;;;;;;;;;22.00;21.33;;;;;1.72;67.74;101956.31;4905395;29;45547;-81
2024/01/08 07:32:47;;;;;;;;;12.67;10.00;;;;;1.73;67.85;101948.53;4888657;29;45482;-81
2024/01/08 07:35:13;;;;;;;;;14.67;13.00;;;;;1.65;69.56;101938.31;4889186;29;45418;-80
2024/01/08 07:37:40;;;;;;;;;16.67;16.67;;;;;1.63;70.77;101945.16;4906307;29;45403;-80
2024/01/08 07:40:07;;;;;;;;;20.33;19.67;;;;;1.63;67.98;101947.78;4905091;29;45378;-81
2024/01/08 07:42:32;;;;;;;;;18.00;13.67;;;;;1.61;68.72;101952.91;4906681;28;45544;-81
2024/01/08 07:44:58;;;;;;;;;28.00;21.00;;;;;1.62;69.95;101949.50;4889213;29;45558;-80
2024/01/08 07:47:25;;;;;;;;;20.00;15.00;;;;;1.58;66.96;101957.97;4902279;28;48150;-80
2024/01/08 07:49:50;;;;;;;;;28.00;19.00;;;;;1.52;69.44;101936.56;4889119;29;45720;-80
2024/01/08 07:52:16;;;;;;;;;19.33;17.33;;;;;1.59;68.85;101944.94;4920300;28;45470;-81
2024/01/08 07:54:41;;;;;;;;;25.33;22.33;;;;;1.51;68.21;101955.72;4910189;28;45345;-85
2024/01/08 07:57:09;;;;;;;;;17.33;15.67;;;;;1.36;68.63;101895.25;4913577;28;45387;-85
2024/01/08 07:59:35;;;;;;;;;17.33;17.33;;;;;1.55;71.16;101942.91;4909890;29;44745;-85
2024/01/08 08:02:00;;;;;;;;;19.00;16.67;;;;;1.65;69.00;101949.72;4900724;29;44883;-86
2024/01/08 08:04:26;;;;;;;;;20.33;16.00;;;;;1.70;71.46;101950.94;4909699;28;44984;-85
2024/01/08 08:06:51;;;;;;;;;16.00;13.00;;;;;1.69;71.76;101948.22;4889941;28;47525;-84
2024/01/08 08:09:17;;;;;;;;;22.67;22.67;;;;;1.59;71.97;101923.06;4912304;28;45378;-85
2024/01/08 08:11:43;;;;;;;;;22.67;20.67;;;;;1.79;71.43;101951.56;4913872;28;45519;-86
2024/01/08 08:14:08;;;;;;;;;18.33;18.33;;;;;1.80;71.62;101955.13;4913044;29;45990;-86
2024/01/08 08:16:34;;;;;;;;;19.33;16.67;;;;;1.80;69.65;101957.75;4910509;28;46773;-83
2024/01/08 08:19:00;;;;;;;;;24.00;20.33;;;;;1.78;70.66;101954.09;4899717;28;44899;-85
2024/01/08 08:21:30;;;;;;;;;24.33;22.33;;;;;1.91;69.50;101958.47;4906181;28;45604;-85
2024/01/08 08:23:57;;;;;;;;;23.33;23.33;;;;;1.83;69.80;101960.56;4898424;29;45401;-84
2024/01/08 08:26:26;;;;;;;;;21.00;19.00;;;;;1.71;69.25;101950.13;4910103;28;45196;-83
2024/01/08 08:28:54;;;;;;;;;20.00;20.00;;;;;1.85;69.31;101963.31;4911284;28;45341;-83
2024/01/08 08:31:20;;;;;;;;;17.67;17.67;;;;;1.55;69.88;101932.41;4917495;28;45413;-84
2024/01/08 08:37:14;;;;;;;;;21.33;21.33;;;;;1.88;71.56;101974.00;4908644;29;45236;-83
2024/01/08 08:39:42;;;;;;;;;19.67;19.00;;;;;1.75;68.87;101967.91;4908068;28;45532;-84
2024/01/08 08:42:08;;;;;;;;;19.00;16.33;;;;;1.81;71.28;101972.66;4906141;29;45517;-84
2024/01/08 08:44:34;;;;;;;;;27.00;22.67;;;;;1.91;69.13;101979.47;4909396;29;45507;-84
2024/01/08 08:47:02;;;;;;;;;20.67;20.67;;;;;1.84;69.85;101971.97;4909096;28;46097;-84
2024/01/08 08:49:27;;;;;;;;;19.00;19.00;;;;;1.85;70.97;101973.78;4930123;28;44795;-84
2024/01/08 08:51:52;;;;;;;;;26.67;24.67;;;;;1.87;72.59;101970.47;4910848;29;44892;-84
2024/01/08 08:54:24;;;;;;;;;13.67;13.67;;;;;2.06;72.39;101980.53;4909968;29;45467;-85
2024/01/08 08:56:50;;;;;;;;;18.67;18.67;;;;;1.99;69.92;101973.03;4908115;29;46134;-82
2024/01/08 09:02:09;;;;;;;;;24.67;22.33;;;;;1.95;73.32;101982.38;4899819;28;44925;-79
2024/01/08 09:04:35;;;;;;;;;34.33;25.67;;;;;2.05;70.53;101997.06;4922997;28;45265;-81
2024/01/08 09:07:01;;;;;;;;;24.67;22.67;;;;;2.04;72.81;101987.38;4904043;29;45484;-80
2024/01/08 09:09:26;;;;;;;;;20.00;19.00;;;;;2.07;73.39;101991.94;4905987;28;45389;-79
2024/01/08 09:11:52;;;;;;;;;24.67;22.67;;;;;2.11;74.13;101979.09;4908660;28;45352;-81
2024/01/08 09:14:18;;;;;;;;;21.67;21.00;;;;;2.13;70.46;101989.72;4890420;28;45427;-79
2024/01/08 09:16:45;;;;;;;;;19.33;16.67;;;;;2.00;72.26;101972.25;4903675;28;47310;-82
2024/01/08 09:22:35;;;;;;;;;21.67;19.67;;;;;1.80;70.75;101939.38;4897373;28;45501;-81
2024/01/08 09:25:04;;;;;;;;;19.67;17.67;;;;;1.75;73.27;101925.94;4926616;28;44851;-81
2024/01/08 09:27:33;;;;;;;;;23.00;23.00;;;;;2.04;72.49;101952.34;4911106;29;45593;-80
2024/01/08 09:30:09;;;;;;;;;20.00;20.00;;;;;1.98;73.40;101945.00;4912082;29;45897;-80
2024/01/08 09:32:50;;;;;;;;;25.67;17.67;;;;;2.09;73.35;101938.72;4893160;28;45532;-81
2024/01/08 09:35:16;;;;;;;;;24.00;24.00;;;;;2.27;72.72;101980.16;4911068;28;45592;-80
2024/01/08 09:37:42;;;;;;;;;27.00;22.33;;;;;2.21;74.86;101967.53;4909274;29;48069;-80
2024/01/08 09:40:10;;;;;;;;;20.67;20.67;;;;;2.47;72.25;101990.28;4923365;28;45429;-80
2024/01/08 09:42:45;;;;;;;;;21.67;21.67;;;;;2.38;73.03;102001.09;4908479;29;44873;-80
2024/01/08 09:45:12;;;;;;;;;16.00;16.00;;;;;2.44;72.42;102005.81;4906758;29;45476;-81
2024/01/08 09:47:47;;;;;;;;;29.67;21.67;;;;;2.33;72.21;101996.31;4898707;29;45743;-82
2024/01/08 09:50:50;;;;;;;;;32.33;23.67;;;;;2.30;76.05;102006.59;4909958;29;45387;-79
2024/01/08 09:53:41;;;;;;;;;31.67;27.33;;;;;2.24;77.16;101993.97;4918129;28;44909;-84
2024/01/08 09:56:32;;;;;;;;;20.33;20.00;;;;;2.16;74.66;101982.97;4916203;28;44884;-84
2024/01/08 09:59:17;;;;;;;;;21.00;19.67;;;;;2.11;76.42;101973.84;4900935;28;45228;-83
2024/01/08 10:01:53;;;;;;;;;26.00;20.00;;;;;2.24;74.47;102016.69;4916361;28;44929;-82
2024/01/08 10:11:16;;;;;;;;;26.00;24.33;;;;;1.96;76.44;101957.06;5324498;23;46304;-87
2024/01/08 10:13:45;;;;;;;;;22.67;21.00;;;;;1.96;76.19;101999.03;4922860;28;44824;-83
2024/01/08 10:16:11;;;;;;;;;20.00;20.00;;;;;1.88;77.09;101997.59;4928641;28;45362;-86
2024/01/08 10:21:19;;;;;;;;;21.00;21.00;;;;;1.90;81.25;101988.13;4966503;23;45557;-81
2024/01/08 10:23:56;;;;;;;;;;;;;;;;;;;;;
2024/01/08 10:26:26;;;;;;;;;27.33;23.00;;;;;1.64;83.41;101966.25;4930942;28;67853;-85
2024/01/08 10:28:59;;;;;;;;;31.00;25.00;;;;;1.73;81.02;101964.25;4925521;28;45556;-83
2024/01/08 10:31:27;;;;;;;;;27.33;26.00;;;;;1.67;85.37;101969.06;4915228;28;45433;-82
2024/01/08 10:34:02;;;;;;;;;31.33;29.00;;;;;1.83;82.61;101981.53;4926635;28;45532;-82
2024/01/08 10:36:42;;;;;;;;;;;;;;;;;;;;;
2024/01/08 10:39:10;;;;;;;;;26.00;22.67;;;;;1.82;84.98;101994.56;4931046;28;65005;-81
2024/01/08 10:41:58;;;;;;;;;33.67;28.33;;;;;2.00;85.21;102002.00;4921854;28;47137;-81
2024/01/08 10:44:25;;;;;;;;;17.33;15.33;;;;;1.68;89.02;101960.44;4918980;28;45386;-83
2024/01/08 10:47:26;;;;;;;;;29.67;29.67;;;;;2.02;86.42;101996.88;4910471;28;45764;-82
2024/01/08 10:49:58;;;;;;;;;31.00;27.33;;;;;1.84;86.44;101966.72;4925685;28;45454;-82
2024/01/08 10:52:35;;;;;;;;;23.00;22.00;;;;;2.03;86.37;102000.38;4929152;28;46861;-80
2024/01/08 10:55:01;;;;;;;;;31.33;28.00;;;;;1.80;85.42;101966.53;4941471;28;45650;-82
2024/01/08 10:58:02;;;;;;;;;35.50;31.50;;;;;1.82;87.12;101965.69;4948606;28;45415;-82
2024/01/08 11:04:05;;;;;;;;;31.00;24.67;;;;;1.89;86.41;101991.56;4938412;28;45516;-81
2024/01/08 11:06:48;;;;;;;;;30.33;29.33;;;;;1.76;87.98;101980.22;4903632;28;45559;-82
2024/01/08 11:09:31;;;;;;;;;34.33;30.33;;;;;1.91;87.64;101989.94;4919325;28;44789;-82
2024/01/08 11:12:11;;;;;;;;;;;;;;;;;;;;;
2024/01/08 11:14:45;;;;;;;;;44.00;37.00;;;;;1.77;87.74;101944.41;4941128;28;74331;-82
2024/01/08 11:17:11;;;;;;;;;20.67;16.00;;;;;1.78;87.95;101943.63;4921152;28;45048;-81
2024/01/08 11:19:40;;;;;;;;;43.33;36.33;;;;;2.16;86.01;101985.59;4935535;28;45496;-82
2024/01/08 11:22:18;;;;;;;;;35.00;28.00;;;;;2.14;87.21;101984.59;4930219;28;45303;-80
2024/01/08 11:24:44;;;;;;;;;36.33;32.00;;;;;2.13;83.73;101980.13;4923039;28;47015;-82
2024/01/08 11:27:20;;;;;;;;;30.33;29.00;;;;;2.31;85.23;101971.69;4929541;28;45346;-82
2024/01/08 11:30:10;;;;;;;;;40.00;31.00;;;;;2.49;86.43;101977.25;4920898;28;45135;-83
2024/01/08 11:32:58;;;;;;;;;36.33;27.67;;;;;2.52;85.02;101964.31;4915744;29;45355;-82
2024/01/08 11:36:39;;;;;;;;;23.67;17.67;;;;;2.42;85.89;101933.00;4915685;28;47342;-84
2024/01/08 11:39:23;;;;;;;;;23.67;17.67;;;;;2.58;84.44;101962.09;4917786;28;44970;-82
2024/01/08 11:45:11;;;;;;;;;30.33;27.00;;;;;2.29;85.06;101932.19;4951378;28;45322;-81
2024/01/08 11:47:37;;;;;;;;;25.33;21.00;;;;;2.35;83.12;101957.97;4935781;28;46413;-82
2024/01/08 11:50:14;;;;;;;;;24.33;23.00;;;;;2.23;83.69;101951.88;4927562;28;45513;-82
2024/01/08 11:53:10;;;;;;;;;32.33;29.33;;;;;2.37;82.03;101956.34;4919515;28;45505;-83
2024/01/08 11:55:36;;;;;;;;;24.00;23.33;;;;;2.25;82.82;101934.53;4909076;28;45522;-83
2024/01/08 11:58:44;;;;;;;;;;;;;;;;;;;;;